createdAt,value
2022-08-09T00:00:19.675Z,37.54
2022-08-09T00:02:49.864Z,37.86
2022-08-09T00:06:18.099Z,38.17
2022-08-09T00:08:10.017Z,37.70
2022-08-09T00:10:40.965Z,38.15
2022-08-09T00:13:17.289Z,37.88
2022-08-09T00:15:59.066Z,37.76
2022-08-09T00:18:35.847Z,38.18
2022-08-09T00:21:07.709Z,37.93
2022-08-09T00:23:56.394Z,38.30
2022-08-09T00:26:32.976Z,38.21
2022-08-09T00:29:03.803Z,38.32
2022-08-09T00:31:59.106Z,38.15
2022-08-09T00:34:26.421Z,38.22
2022-08-09T00:36:54.405Z,38.07
2022-08-09T00:40:14.160Z,37.84
2022-08-09T00:44:13.639Z,38.04
2022-08-09T00:44:58.127Z,38.55
2022-08-09T00:47:25.470Z,38.42
2022-08-09T00:49:55.216Z,38.54
2022-08-09T00:52:28.303Z,38.49
2022-08-09T00:55:01.821Z,38.38
2022-08-09T00:57:34.331Z,38.59
2022-08-09T01:00:20.621Z,38.04
2022-08-09T01:02:53.714Z,38.37
2022-08-09T01:05:54.489Z,38.37
2022-08-09T01:08:28.085Z,38.43
2022-08-09T01:11:24.020Z,38.35
2022-08-09T01:14:03.929Z,38.62
2022-08-09T01:16:47.452Z,38.17
2022-08-09T01:19:51.551Z,38.09
2022-08-09T01:22:42.181Z,38.30
2022-08-09T01:25:24.129Z,38.20
2022-08-09T01:27:57.042Z,38.34
2022-08-09T01:30:35.384Z,38.38
2022-08-09T01:33:06.755Z,38.79
2022-08-09T01:35:53.363Z,38.40
2022-08-09T01:38:26.139Z,38.66
2022-08-09T01:41:05.798Z,38.62
2022-08-09T01:43:50.846Z,38.44
2022-08-09T01:46:24.779Z,38.36
2022-08-09T01:48:57.316Z,39.12
2022-08-09T01:51:32.149Z,39.01
2022-08-09T01:54:02.095Z,39.07
2022-08-09T01:56:33.323Z,38.99
2022-08-09T01:59:06.003Z,38.90
2022-08-09T02:01:59.670Z,39.03
2022-08-09T02:04:23.059Z,39.27
2022-08-09T02:07:18.415Z,39.09
2022-08-09T02:10:08.904Z,39.58
2022-08-09T02:12:37.763Z,38.79
2022-08-09T02:15:15.449Z,39.00
2022-08-09T02:18:00.425Z,39.02
2022-08-09T02:20:38.401Z,39.10
2022-08-09T02:23:12.221Z,39.13
2022-08-09T02:25:55.591Z,39.40
2022-08-09T02:28:30.359Z,39.16
2022-08-09T02:31:07.558Z,39.25
2022-08-09T02:34:07.230Z,39.43
2022-08-09T02:36:31.989Z,39.25
2022-08-09T02:39:14.343Z,39.21
2022-08-09T02:41:56.229Z,39.23
2022-08-09T02:44:29.292Z,39.58
2022-08-09T02:47:02.200Z,39.50
2022-08-09T02:49:40.974Z,39.28
2022-08-09T02:52:13.636Z,39.57
2022-08-09T02:54:51.214Z,39.68
2022-08-09T02:57:25.157Z,39.56
2022-08-09T03:00:21.298Z,39.75
2022-08-09T03:03:00.415Z,39.54
2022-08-09T03:05:34.258Z,39.86
2022-08-09T03:08:04.721Z,39.69
2022-08-09T03:10:32.994Z,39.73
2022-08-09T03:13:00.989Z,39.70
2022-08-09T03:16:04.345Z,40.05
2022-08-09T03:18:19.172Z,39.91
2022-08-09T03:21:00.277Z,39.99
2022-08-09T03:23:28.483Z,39.79
2022-08-09T03:26:02.100Z,39.98
2022-08-09T03:28:32.913Z,39.71
2022-08-09T03:31:09.912Z,39.87
2022-08-09T03:33:54.233Z,40.06
2022-08-09T03:36:27.599Z,39.67
2022-08-09T03:38:56.297Z,40.13
2022-08-09T03:41:29.903Z,40.21
2022-08-09T03:44:12.116Z,40.17
2022-08-09T03:46:39.423Z,40.25
2022-08-09T03:49:08.267Z,40.08
2022-08-09T03:51:55.142Z,39.88
2022-08-09T03:54:29.471Z,40.07
2022-08-09T03:57:00.261Z,40.48
2022-08-09T03:59:53.801Z,40.31
2022-08-09T04:02:14.734Z,40.05
2022-08-09T04:04:47.979Z,40.23
2022-08-09T04:07:18.157Z,40.31
2022-08-09T04:09:50.315Z,40.20
2022-08-09T04:12:38.034Z,40.43
2022-08-09T04:15:17.257Z,40.60
2022-08-09T04:17:57.705Z,40.50
2022-08-09T04:20:24.897Z,40.41
2022-08-09T04:22:52.978Z,40.68
2022-08-09T04:25:21.175Z,40.82
2022-08-09T04:27:49.438Z,40.68
2022-08-09T04:30:23.226Z,40.53
2022-08-09T04:32:51.557Z,40.53
2022-08-09T04:35:21.727Z,40.63
2022-08-09T04:37:49.795Z,40.75
2022-08-09T04:40:28.503Z,40.67
2022-08-09T04:43:04.026Z,40.62
2022-08-09T04:45:42.980Z,40.68
2022-08-09T04:48:19.503Z,40.91
2022-08-09T04:50:46.568Z,40.93
2022-08-09T04:53:17.156Z,40.64
2022-08-09T04:55:58.048Z,40.75
2022-08-09T04:58:31.827Z,41.05
2022-08-09T05:01:01.382Z,40.75
2022-08-09T05:03:43.266Z,41.10
2022-08-09T05:06:11.901Z,41.04
2022-08-09T05:08:49.096Z,41.20
2022-08-09T05:11:16.516Z,41.31
2022-08-09T05:13:43.798Z,41.03
2022-08-09T05:16:10.919Z,41.12
2022-08-09T05:18:57.427Z,41.38
2022-08-09T05:21:30.522Z,41.13
2022-08-09T05:24:04.643Z,41.28
2022-08-09T05:26:41.095Z,41.45
2022-08-09T05:29:31.149Z,41.53
2022-08-09T05:32:02.252Z,41.28
2022-08-09T05:34:32.554Z,41.41
2022-08-09T05:37:06.704Z,41.55
2022-08-09T05:39:43.289Z,41.33
2022-08-09T05:42:18.004Z,41.43
2022-08-09T05:44:52.525Z,41.47
2022-08-09T05:47:23.862Z,41.60
2022-08-09T05:50:23.785Z,41.24
2022-08-09T05:52:41.770Z,41.67
2022-08-09T05:55:20.536Z,41.56
2022-08-09T05:57:51.036Z,41.51
2022-08-09T06:00:23.581Z,41.44
2022-08-09T06:02:54.156Z,41.42
2022-08-09T06:05:30.385Z,41.69
2022-08-09T06:08:05.444Z,41.41
2022-08-09T06:10:40.731Z,41.38
2022-08-09T06:13:18.411Z,41.80
2022-08-09T06:15:46.890Z,41.65
2022-08-09T06:18:15.828Z,41.21
2022-08-09T06:20:54.211Z,41.76
2022-08-09T06:23:23.032Z,41.55
2022-08-09T06:26:10.026Z,41.91
2022-08-09T06:28:36.898Z,41.91
2022-08-09T06:31:04.161Z,41.83
2022-08-09T06:33:41.476Z,41.98
2022-08-09T06:36:11.991Z,41.62
2022-08-09T06:38:42.985Z,41.83
2022-08-09T06:41:18.709Z,41.90
2022-08-09T06:43:48.703Z,42.05
2022-08-09T06:46:40.017Z,41.90
2022-08-09T06:49:03.715Z,41.21
2022-08-09T06:51:33.681Z,42.14
2022-08-09T06:54:07.005Z,42.03
2022-08-09T06:56:46.284Z,41.85
2022-08-09T07:00:49.067Z,41.92
2022-08-09T07:02:04.340Z,41.53
2022-08-09T07:04:32.631Z,41.83
2022-08-09T07:07:00.946Z,41.67
2022-08-09T07:09:57.412Z,42.04
2022-08-09T07:12:38.090Z,41.86
2022-08-09T07:15:53.944Z,42.03
2022-08-09T07:17:56.297Z,41.97
2022-08-09T07:20:29.428Z,41.97
2022-08-09T07:22:56.706Z,42.05
2022-08-09T07:25:25.796Z,41.61
2022-08-09T07:27:55.951Z,41.45
2022-08-09T07:30:25.115Z,41.50
2022-08-09T07:32:53.306Z,41.44
2022-08-09T07:35:22.573Z,41.51
2022-08-09T07:37:50.615Z,41.87
2022-08-09T07:40:46.433Z,42.11
2022-08-09T07:43:17.223Z,41.46
2022-08-09T07:45:44.585Z,41.61
2022-08-09T07:48:25.742Z,41.68
2022-08-09T07:51:09.369Z,41.71
2022-08-09T07:54:05.540Z,41.53
2022-08-09T07:56:35.988Z,41.04
2022-08-09T07:59:12.507Z,41.94
2022-08-09T08:01:43.854Z,41.86
2022-08-09T08:04:25.603Z,41.90
2022-08-09T08:07:14.972Z,41.60
2022-08-09T08:09:53.498Z,41.36
2022-08-09T08:12:32.207Z,41.76
2022-08-09T08:14:59.754Z,41.30
2022-08-09T08:17:54.133Z,41.71
2022-08-09T08:20:15.263Z,42.00
2022-08-09T08:22:42.143Z,41.41
2022-08-09T08:25:13.618Z,41.09
2022-08-09T08:27:43.351Z,41.70
2022-08-09T08:30:20.584Z,41.44
2022-08-09T08:32:53.933Z,41.22
2022-08-09T08:35:22.468Z,41.26
2022-08-09T08:38:01.817Z,41.30
2022-08-09T08:40:33.585Z,41.78
2022-08-09T08:43:03.192Z,41.66
2022-08-09T08:45:51.498Z,41.58
2022-08-09T08:48:29.116Z,41.37
2022-08-09T08:50:58.802Z,41.47
2022-08-09T08:53:32.218Z,41.57
2022-08-09T08:56:06.460Z,41.65
2022-08-09T08:58:36.220Z,41.07
2022-08-09T09:01:08.915Z,41.61
2022-08-09T09:03:50.412Z,41.67
2022-08-09T09:06:19.591Z,41.43
2022-08-09T09:08:52.479Z,40.88
2022-08-09T09:11:20.594Z,41.37
2022-08-09T09:13:57.482Z,41.04
2022-08-09T09:16:33.721Z,41.22
2022-08-09T09:22:15.732Z,40.97
2022-08-09T09:24:59.122Z,40.92
2022-08-09T09:28:06.448Z,40.47
2022-08-09T09:30:40.074Z,40.38
2022-08-09T09:33:20.445Z,40.67
2022-08-09T09:36:02.321Z,41.17
2022-08-09T09:38:41.456Z,40.75
2022-08-09T09:41:10.806Z,41.23
2022-08-09T09:43:41.054Z,40.77
2022-08-09T09:48:57.938Z,40.93
2022-08-09T09:51:38.190Z,40.63
2022-08-09T09:54:20.446Z,41.09
2022-08-09T09:58:01.711Z,40.92
2022-08-09T09:59:37.604Z,40.94
2022-08-09T10:02:06.675Z,40.18
2022-08-09T10:04:34.975Z,40.50
2022-08-09T10:07:10.012Z,40.44
2022-08-09T10:09:48.995Z,39.83
2022-08-09T10:12:43.832Z,40.36
2022-08-09T10:15:51.084Z,39.81
2022-08-09T10:18:11.629Z,40.83
2022-08-09T10:20:45.224Z,40.09
2022-08-09T10:23:20.979Z,40.02
2022-08-09T10:26:06.307Z,39.82
2022-08-09T10:28:38.594Z,40.04
2022-08-09T10:34:09.867Z,40.36
2022-08-09T10:36:43.594Z,39.46
2022-08-09T10:39:15.688Z,40.00
2022-08-09T10:41:46.033Z,39.71
2022-08-09T10:44:21.666Z,39.50
2022-08-09T10:47:00.712Z,39.35
2022-08-09T10:50:06.855Z,39.32
2022-08-09T10:53:12.251Z,39.95
2022-08-09T10:55:58.684Z,40.08
2022-08-09T10:58:32.491Z,39.51
2022-08-09T11:03:01.678Z,39.90
2022-08-09T11:04:27.755Z,39.89
2022-08-09T11:06:59.899Z,39.16
2022-08-09T11:09:47.709Z,38.98
2022-08-09T11:12:26.577Z,39.61
2022-08-09T11:15:01.549Z,38.81
2022-08-09T11:17:31.722Z,39.36
2022-08-09T11:20:22.697Z,39.70
2022-08-09T11:22:55.368Z,38.81
2022-08-09T11:25:47.793Z,38.89
2022-08-09T11:28:34.558Z,38.99
2022-08-09T11:31:49.333Z,38.75
2022-08-09T11:34:33.296Z,38.84
2022-08-09T11:37:07.533Z,39.37
2022-08-09T11:40:04.822Z,38.49
2022-08-09T11:42:50.750Z,39.43
2022-08-09T11:45:43.512Z,39.01
2022-08-09T11:48:26.212Z,39.25
2022-08-09T11:52:36.728Z,39.09
2022-08-09T11:53:59.760Z,38.30
2022-08-09T11:56:41.363Z,38.91
2022-08-09T11:59:12.169Z,38.21
2022-08-09T12:02:17.426Z,38.86
2022-08-09T12:04:32.391Z,38.23
2022-08-09T12:07:07.816Z,38.53
2022-08-09T12:09:36.198Z,38.40
2022-08-09T12:12:13.196Z,38.90
2022-08-09T12:15:07.450Z,38.29
2022-08-09T12:17:43.378Z,38.32
2022-08-09T12:20:22.231Z,38.63
2022-08-09T12:22:56.302Z,38.35
2022-08-09T12:25:31.963Z,38.12
2022-08-09T12:29:14.547Z,38.18
2022-08-09T12:31:02.894Z,38.61
2022-08-09T12:33:58.492Z,37.96
2022-08-09T12:36:33.685Z,38.49
2022-08-09T12:39:01.698Z,37.70
2022-08-09T12:41:39.667Z,37.71
2022-08-09T12:44:08.613Z,38.37
2022-08-09T12:46:48.846Z,38.40
2022-08-09T12:49:18.073Z,37.42
2022-08-09T12:52:02.343Z,37.67
2022-08-09T12:56:11.592Z,37.97
2022-08-09T12:57:46.520Z,37.64
2022-08-09T13:00:17.797Z,37.64
2022-08-09T13:03:00.119Z,38.00
2022-08-09T13:05:51.806Z,37.97
2022-08-09T13:08:39.775Z,37.90
2022-08-09T13:11:23.315Z,37.70
2022-08-09T13:14:37.239Z,37.27
2022-08-09T13:16:56.476Z,37.94
2022-08-09T13:20:09.679Z,37.48
2022-08-09T13:22:37.409Z,37.28
2022-08-09T13:25:14.382Z,37.73
2022-08-09T13:27:55.013Z,36.99
2022-08-09T13:30:50.035Z,37.03
2022-08-09T13:33:22.480Z,37.01
2022-08-09T13:36:38.383Z,37.53
2022-08-09T13:38:58.024Z,36.91
2022-08-09T13:41:58.761Z,37.39
2022-08-09T13:44:13.539Z,37.10
2022-08-09T13:47:17.987Z,36.89
2022-08-09T13:49:37.861Z,37.42
2022-08-09T13:52:09.399Z,37.49
2022-08-09T13:54:41.718Z,37.17
2022-08-09T13:57:14.504Z,37.07
2022-08-09T13:59:58.153Z,37.43
2022-08-09T14:02:25.354Z,36.76
2022-08-09T14:05:00.034Z,36.55
2022-08-09T14:07:30.352Z,36.41
2022-08-09T14:10:17.152Z,37.13
2022-08-09T14:12:56.590Z,37.04
2022-08-09T14:16:09.148Z,36.82
2022-08-09T14:18:19.700Z,37.03
2022-08-09T14:20:48.765Z,36.35
2022-08-09T14:23:22.764Z,36.72
2022-08-09T14:26:05.882Z,36.80
2022-08-09T14:28:33.928Z,36.50
2022-08-09T14:31:00.964Z,36.25
2022-08-09T14:33:28.000Z,36.19
2022-08-09T14:35:56.326Z,36.52
2022-08-09T14:38:23.356Z,36.65
2022-08-09T14:41:02.280Z,36.28
2022-08-09T14:43:46.992Z,36.66
2022-08-09T14:46:55.886Z,36.27
2022-08-09T14:49:02.758Z,36.58
2022-08-09T14:51:31.359Z,36.40
2022-08-09T14:54:09.840Z,36.50
2022-08-09T14:56:58.178Z,36.04
2022-08-09T14:59:23.934Z,35.84
2022-08-09T15:01:50.917Z,36.05
2022-08-09T15:04:18.802Z,35.70
2022-08-09T15:06:49.713Z,36.49
2022-08-09T15:10:03.988Z,36.05
2022-08-09T15:12:05.305Z,36.23
2022-08-09T15:14:38.657Z,36.22
2022-08-09T15:17:09.672Z,36.07
2022-08-09T15:19:37.162Z,35.40
2022-08-09T15:22:26.134Z,35.87
2022-08-09T15:25:00.062Z,35.68
2022-08-09T15:27:31.362Z,35.83
2022-08-09T15:30:59.059Z,35.59
2022-08-09T15:33:07.404Z,35.32
2022-08-09T15:35:40.675Z,35.98
2022-08-09T15:38:16.603Z,35.61
2022-08-09T15:40:44.359Z,35.80
2022-08-09T15:43:14.034Z,35.63
2022-08-09T15:46:07.439Z,35.40
2022-08-09T15:48:30.789Z,35.00
2022-08-09T15:51:02.469Z,35.79
2022-08-09T15:54:04.527Z,35.48
2022-08-09T15:56:35.238Z,35.34
2022-08-09T15:59:02.749Z,35.18
2022-08-09T16:01:31.434Z,34.86
2022-08-09T16:04:03.070Z,35.52
2022-08-09T16:06:35.798Z,35.17
2022-08-09T16:09:07.764Z,35.06
2022-08-09T16:11:34.860Z,34.82
2022-08-09T16:14:07.964Z,35.09
2022-08-09T16:16:37.374Z,34.69
2022-08-09T16:19:06.199Z,34.62
2022-08-09T16:21:35.845Z,34.85
2022-08-09T16:24:20.136Z,34.47
2022-08-09T16:26:56.746Z,35.09
2022-08-09T16:29:37.040Z,34.49
2022-08-09T16:32:18.924Z,34.55
2022-08-09T16:34:56.520Z,34.73
2022-08-09T16:37:54.550Z,34.25
2022-08-09T16:40:29.472Z,34.55
2022-08-09T16:43:02.455Z,34.79
2022-08-09T16:45:29.626Z,34.83
2022-08-09T16:48:40.064Z,34.56
2022-08-09T16:50:59.184Z,34.28
2022-08-09T16:53:33.991Z,34.36
2022-08-09T16:56:07.591Z,34.62
2022-08-09T16:58:42.605Z,34.13
2022-08-09T17:01:19.495Z,34.73
2022-08-09T17:03:50.775Z,33.91
2022-08-09T17:06:31.753Z,34.05
2022-08-09T17:09:43.629Z,33.93
2022-08-09T17:11:52.490Z,34.20
2022-08-09T17:14:27.108Z,34.31
2022-08-09T17:17:00.039Z,34.33
2022-08-09T17:19:47.129Z,34.38
2022-08-09T17:22:24.880Z,34.40
2022-08-09T17:25:04.671Z,34.45
2022-08-09T17:27:38.767Z,33.72
2022-08-09T17:30:12.803Z,33.80
2022-08-09T17:32:45.446Z,34.50
2022-08-09T17:35:14.593Z,34.25
2022-08-09T17:38:10.142Z,34.33
2022-08-09T17:40:34.656Z,34.55
2022-08-09T17:43:32.148Z,33.82
2022-08-09T17:46:02.741Z,34.33
2022-08-09T17:48:39.823Z,33.51
2022-08-09T17:51:18.027Z,33.91
2022-08-09T17:53:51.546Z,33.99
2022-08-09T17:56:35.910Z,33.50
2022-08-09T17:59:11.571Z,33.86
2022-08-09T18:02:06.823Z,34.22
2022-08-09T18:04:27.156Z,34.07
2022-08-09T18:06:55.807Z,34.32
2022-08-09T18:09:40.445Z,33.63
2022-08-09T18:12:19.712Z,34.00
2022-08-09T18:14:53.721Z,34.50
2022-08-09T18:17:27.161Z,33.98
2022-08-09T18:20:59.614Z,34.42
2022-08-09T18:23:05.002Z,34.00
2022-08-09T18:25:50.943Z,34.45
2022-08-09T18:30:40.267Z,34.40
2022-08-09T18:31:25.009Z,34.21
2022-08-09T18:33:59.988Z,34.34
2022-08-09T18:36:32.569Z,33.62
2022-08-09T18:39:05.873Z,34.32
2022-08-09T18:41:35.940Z,34.21
2022-08-09T18:44:12.566Z,33.38
2022-08-09T18:46:47.709Z,33.76
2022-08-09T18:49:27.638Z,34.23
2022-08-09T18:51:59.417Z,33.93
2022-08-09T18:54:29.407Z,34.28
2022-08-09T18:57:06.465Z,34.29
2022-08-09T18:59:48.550Z,33.65
2022-08-09T19:02:18.411Z,33.36
2022-08-09T19:04:47.377Z,33.43
2022-08-09T19:07:16.275Z,33.98
2022-08-09T19:10:14.097Z,33.44
2022-08-09T19:12:32.269Z,33.58
2022-08-09T19:15:04.580Z,33.57
2022-08-09T19:17:39.767Z,33.99
2022-08-09T19:20:22.733Z,34.46
2022-08-09T19:22:50.418Z,34.33
2022-08-09T19:25:42.626Z,33.95
2022-08-09T19:28:08.851Z,33.42
2022-08-09T19:30:44.317Z,33.49
2022-08-09T19:33:19.504Z,33.61
2022-08-09T19:35:58.180Z,33.77
2022-08-09T19:38:27.728Z,34.19
2022-08-09T19:40:59.786Z,34.17
2022-08-09T19:44:00.735Z,33.60
2022-08-09T19:46:17.181Z,33.58
2022-08-09T19:50:07.564Z,34.33
2022-08-09T19:51:55.730Z,34.35
2022-08-09T19:54:25.111Z,34.02
2022-08-09T19:56:53.495Z,34.46
2022-08-09T19:59:58.481Z,34.54
2022-08-09T20:02:17.132Z,34.04
2022-08-09T20:04:55.601Z,33.70
2022-08-09T20:07:23.270Z,33.72
2022-08-09T20:09:50.261Z,34.13
2022-08-09T20:12:30.268Z,34.40
2022-08-09T20:16:31.892Z,34.02
2022-08-09T20:17:54.399Z,33.86
2022-08-09T20:20:22.291Z,34.17
2022-08-09T20:22:56.063Z,34.28
2022-08-09T20:25:24.148Z,34.49
2022-08-09T20:27:52.422Z,34.21
2022-08-09T20:30:21.805Z,34.16
2022-08-09T20:32:52.299Z,34.17
2022-08-09T20:35:24.424Z,34.67
2022-08-09T20:38:21.017Z,34.84
2022-08-09T20:40:38.641Z,33.96
2022-08-09T20:43:19.158Z,34.50
2022-08-09T20:45:59.591Z,34.82
2022-08-09T20:48:31.320Z,34.63
2022-08-09T20:51:00.948Z,34.43
2022-08-09T20:53:36.992Z,34.87
2022-08-09T20:56:09.041Z,34.22
2022-08-09T20:58:36.533Z,34.43
2022-08-09T21:01:32.578Z,34.25
2022-08-09T21:05:49.870Z,34.84
2022-08-09T21:06:42.666Z,34.40
2022-08-09T21:09:14.253Z,34.46
2022-08-09T21:14:31.631Z,34.91
2022-08-09T21:17:00.473Z,34.30
2022-08-09T21:20:19.524Z,35.03
2022-08-09T21:22:36.126Z,34.66
2022-08-09T21:25:21.120Z,35.12
2022-08-09T21:27:51.001Z,34.68
2022-08-09T21:30:22.199Z,35.07
2022-08-09T21:32:50.482Z,34.86
2022-08-09T21:35:17.881Z,34.96
2022-08-09T21:37:59.193Z,35.31
2022-08-09T21:40:30.463Z,34.38
2022-08-09T21:43:01.479Z,34.66
2022-08-09T21:45:28.609Z,34.48
2022-08-09T21:47:58.736Z,35.08
2022-08-09T21:50:38.471Z,35.06
2022-08-09T21:53:23.911Z,35.23
2022-08-09T21:55:55.061Z,34.83
2022-08-09T21:58:30.961Z,34.80
2022-08-09T22:00:58.779Z,35.48
2022-08-09T22:03:26.269Z,35.04
2022-08-09T22:05:54.835Z,34.83
2022-08-09T22:08:25.607Z,34.78
2022-08-09T22:11:00.946Z,34.68
2022-08-09T22:13:43.192Z,35.56
2022-08-09T22:16:12.031Z,35.28
2022-08-09T22:18:53.904Z,34.96
2022-08-09T22:21:44.618Z,35.67
2022-08-09T22:24:17.239Z,35.46
2022-08-09T22:26:51.574Z,35.20
2022-08-09T22:29:24.033Z,35.48
2022-08-09T22:31:56.231Z,34.79
2022-08-09T22:34:27.822Z,35.51
2022-08-09T22:36:57.298Z,35.10
2022-08-09T22:39:55.864Z,35.66
2022-08-09T22:42:20.885Z,35.13
2022-08-09T22:45:02.329Z,35.27
2022-08-09T22:48:12.783Z,35.83
2022-08-09T22:50:29.829Z,35.55
2022-08-09T22:52:58.491Z,35.14
2022-08-09T22:55:39.774Z,35.36
2022-08-09T22:58:32.689Z,35.60
2022-08-09T23:01:05.994Z,35.14
2022-08-09T23:04:04.452Z,35.59
2022-08-09T23:06:35.047Z,35.59
2022-08-09T23:09:06.925Z,35.77
2022-08-09T23:11:34.413Z,35.68
2022-08-09T23:14:03.033Z,36.04
2022-08-09T23:16:30.348Z,35.64
2022-08-09T23:18:57.358Z,35.57
2022-08-09T23:21:29.949Z,35.73
2022-08-09T23:24:06.077Z,35.51
2022-08-09T23:26:37.985Z,36.04
2022-08-09T23:29:13.864Z,35.94
2022-08-09T23:31:41.852Z,35.97
2022-08-09T23:34:09.172Z,35.70
2022-08-09T23:36:36.794Z,36.22
2022-08-09T23:39:06.143Z,35.93
2022-08-09T23:41:33.555Z,36.29
2022-08-09T23:44:01.759Z,36.04
2022-08-09T23:46:30.429Z,35.84
2022-08-09T23:48:58.558Z,36.25
2022-08-09T23:51:26.203Z,35.79
2022-08-09T23:53:55.123Z,36.21
2022-08-09T23:56:53.399Z,35.71
2022-08-09T23:59:10.437Z,35.95
